createdAt,value
2023-05-22T00:01:22.930Z,6.80
2023-05-22T00:04:36.505Z,7.40
2023-05-22T00:08:16.048Z,6.40
2023-05-22T00:11:36.682Z,6.90
2023-05-22T00:15:26.185Z,6.70
2023-05-22T00:18:32.669Z,6.80
2023-05-22T00:21:51.293Z,6.00
2023-05-22T00:25:30.036Z,6.40
2023-05-22T00:29:09.673Z,6.80
2023-05-22T00:32:57.761Z,6.60
2023-05-22T00:36:30.644Z,6.70
2023-05-22T00:40:17.788Z,6.40
2023-05-22T00:43:49.497Z,6.40
2023-05-22T00:47:00.829Z,6.90
2023-05-22T00:50:13.783Z,6.50
2023-05-22T00:53:24.571Z,6.50
2023-05-22T00:56:02.800Z,6.50
2023-05-22T00:59:06.936Z,6.80
2023-05-22T01:02:56.155Z,6.30
2023-05-22T01:06:10.344Z,6.30
2023-05-22T01:09:35.542Z,6.10
2023-05-22T01:13:21.802Z,6.50
2023-05-22T01:17:09.914Z,6.10
2023-05-22T01:21:00.365Z,6.70
2023-05-22T01:24:28.927Z,6.20
2023-05-22T01:27:57.335Z,5.80
2023-05-22T01:30:55.962Z,6.00
2023-05-22T01:34:04.518Z,5.80
2023-05-22T01:37:06.364Z,6.20
2023-05-22T01:39:57.139Z,5.80
2023-05-22T01:42:49.722Z,5.60
2023-05-22T01:45:41.069Z,6.20
2023-05-22T01:49:02.652Z,6.00
2023-05-22T01:52:14.770Z,5.70
2023-05-22T01:55:23.644Z,5.90
2023-05-22T01:59:14.670Z,5.80
2023-05-22T02:02:17.318Z,5.50
2023-05-22T02:05:34.034Z,5.40
2023-05-22T02:08:25.148Z,5.80
2023-05-22T02:11:10.131Z,4.80
2023-05-22T02:13:41.424Z,5.20
2023-05-22T02:16:14.484Z,5.20
2023-05-22T02:18:48.623Z,5.20
2023-05-22T02:21:35.716Z,5.60
2023-05-22T02:24:23.662Z,5.10
2023-05-22T02:27:48.678Z,4.90
2023-05-22T02:30:43.674Z,4.50
2023-05-22T02:33:56.768Z,5.00
2023-05-22T02:37:20.090Z,4.90
2023-05-22T02:40:51.656Z,5.30
2023-05-22T02:44:22.138Z,5.30
2023-05-22T02:48:00.370Z,5.40
2023-05-22T02:51:48.418Z,5.30
2023-05-22T02:55:36.422Z,5.50
2023-05-22T02:58:44.222Z,5.20
2023-05-22T03:05:50.062Z,5.10
2023-05-22T03:09:38.089Z,5.70
2023-05-22T03:13:25.123Z,5.90
2023-05-22T03:17:00.448Z,6.10
2023-05-22T03:20:40.187Z,5.80
2023-05-22T03:24:07.765Z,5.90
2023-05-22T03:27:55.519Z,5.70
2023-05-22T03:31:43.586Z,5.90
2023-05-22T03:34:59.609Z,5.70
2023-05-22T03:38:20.353Z,5.70
2023-05-22T03:41:45.099Z,6.00
2023-05-22T03:45:01.955Z,5.90
2023-05-22T03:47:51.942Z,6.40
2023-05-22T03:50:24.891Z,5.90
2023-05-22T03:53:06.253Z,6.20
2023-05-22T03:55:58.867Z,5.80
2023-05-22T03:59:46.949Z,5.80
2023-05-22T04:03:33.901Z,5.80
2023-05-22T04:07:02.677Z,5.10
2023-05-22T04:10:40.804Z,5.00
2023-05-22T04:13:51.420Z,5.00
2023-05-22T04:16:57.193Z,4.70
2023-05-22T04:19:40.399Z,4.30
2023-05-22T04:22:48.941Z,4.70
2023-05-22T04:25:47.664Z,4.20
2023-05-22T04:29:35.697Z,4.40
2023-05-22T04:33:23.796Z,4.30
2023-05-22T04:36:59.156Z,4.30
2023-05-22T04:40:48.537Z,4.30
2023-05-22T04:44:37.231Z,4.20
2023-05-22T04:48:25.201Z,4.20
2023-05-22T04:52:14.162Z,4.00
2023-05-22T04:56:02.198Z,4.40
2023-05-22T04:59:50.231Z,4.00
2023-05-22T05:02:59.137Z,3.80
2023-05-22T05:06:48.241Z,4.00
2023-05-22T05:10:36.334Z,3.50
2023-05-22T05:14:24.347Z,3.90
2023-05-22T05:18:06.331Z,3.70
2023-05-22T05:21:54.371Z,3.60
2023-05-22T05:25:42.509Z,3.50
2023-05-22T05:29:30.608Z,3.90
2023-05-22T05:33:18.638Z,3.80
2023-05-22T05:37:05.332Z,3.70
2023-05-22T05:40:44.624Z,3.80
2023-05-22T05:44:27.354Z,3.40
2023-05-22T05:48:01.949Z,4.00
2023-05-22T05:51:39.979Z,4.00
2023-05-22T05:55:28.709Z,3.80
2023-05-22T05:59:15.846Z,4.00
2023-05-22T06:03:01.397Z,3.40
2023-05-22T06:06:13.360Z,3.40
2023-05-22T06:10:03.073Z,3.90
2023-05-22T06:14:05.950Z,3.70
2023-05-22T06:17:33.937Z,3.70
2023-05-22T06:21:22.327Z,3.80
2023-05-22T06:24:50.336Z,3.60
2023-05-22T06:28:16.378Z,3.70
2023-05-22T06:32:03.525Z,3.60
2023-05-22T06:35:27.525Z,3.20
2023-05-22T06:38:58.515Z,3.60
2023-05-22T06:42:36.878Z,3.50
2023-05-22T06:46:15.234Z,3.80
2023-05-22T06:49:56.213Z,3.50
2023-05-22T06:53:44.491Z,3.20
2023-05-22T06:57:30.271Z,3.50
2023-05-22T07:00:58.550Z,3.10
2023-05-22T07:04:45.921Z,3.20
2023-05-22T07:08:33.884Z,2.90
2023-05-22T07:12:21.962Z,3.30
2023-05-22T07:16:10.112Z,3.50
2023-05-22T07:19:58.938Z,3.40
2023-05-22T07:23:46.963Z,3.10
2023-05-22T07:27:35.597Z,2.70
2023-05-22T07:31:16.697Z,3.20
2023-05-22T07:35:04.718Z,3.00
2023-05-22T07:38:54.337Z,3.30
2023-05-22T07:42:41.328Z,3.20
2023-05-22T07:46:29.348Z,3.00
2023-05-22T07:50:10.734Z,2.90
2023-05-22T07:53:51.824Z,2.90
2023-05-22T07:57:33.050Z,2.50
2023-05-22T08:05:34.372Z,2.80
2023-05-22T08:09:04.568Z,3.00
2023-05-22T08:12:51.625Z,3.00
2023-05-22T08:16:39.765Z,3.00
2023-05-22T08:20:15.032Z,3.10
2023-05-22T08:24:03.131Z,2.80
2023-05-22T08:27:51.351Z,2.70
2023-05-22T08:31:41.185Z,2.80
2023-05-22T08:35:29.343Z,2.70
2023-05-22T08:39:17.396Z,2.40
2023-05-22T08:43:04.825Z,2.40
2023-05-22T08:47:05.129Z,2.60
2023-05-22T08:50:43.215Z,2.80
2023-05-22T08:54:31.308Z,2.60
2023-05-22T08:58:17.946Z,2.40
2023-05-22T09:02:06.815Z,2.40
2023-05-22T09:05:55.283Z,2.30
2023-05-22T09:09:43.364Z,2.60
2023-05-22T09:13:40.488Z,2.60
2023-05-22T09:17:27.598Z,2.70
2023-05-22T09:21:28.775Z,2.90
2023-05-22T09:25:21.024Z,2.50
2023-05-22T09:29:15.546Z,2.70
2023-05-22T09:33:03.792Z,2.60
2023-05-22T09:36:55.062Z,2.60
2023-05-22T09:40:39.788Z,2.60
2023-05-22T09:44:30.073Z,2.60
2023-05-22T09:48:18.014Z,2.60
2023-05-22T09:52:06.190Z,2.20
2023-05-22T09:55:54.198Z,2.50
2023-05-22T09:59:44.999Z,2.50
2023-05-22T10:03:33.807Z,2.80
2023-05-22T10:07:21.864Z,2.60
2023-05-22T10:11:10.011Z,2.40
2023-05-22T10:14:58.131Z,2.30
2023-05-22T10:18:46.389Z,2.40
2023-05-22T10:22:27.538Z,2.30
2023-05-22T10:26:15.677Z,2.50
2023-05-22T10:30:09.929Z,2.70
2023-05-22T10:34:00.101Z,2.70
2023-05-22T10:38:12.593Z,2.50
2023-05-22T10:42:00.402Z,2.30
2023-05-22T10:45:48.851Z,2.80
2023-05-22T10:49:39.903Z,2.10
2023-05-22T10:53:28.037Z,2.60
2023-05-22T10:57:19.200Z,2.40
2023-05-22T11:01:07.287Z,2.40
2023-05-22T11:05:01.482Z,2.70
2023-05-22T11:08:43.738Z,2.80
2023-05-22T11:12:30.100Z,2.50
2023-05-22T11:16:18.102Z,2.80
2023-05-22T11:20:09.291Z,2.60
2023-05-22T11:23:57.466Z,2.20
2023-05-22T11:27:38.622Z,2.40
2023-05-22T11:31:26.677Z,2.10
2023-05-22T11:35:16.868Z,2.50
2023-05-22T11:38:57.483Z,2.60
2023-05-22T11:42:45.585Z,2.50
2023-05-22T11:46:33.589Z,2.40
2023-05-22T11:50:40.223Z,2.30
2023-05-22T11:54:29.657Z,3.10
2023-05-22T11:58:10.526Z,2.70
2023-05-22T12:01:58.989Z,2.70
2023-05-22T12:05:37.495Z,2.40
2023-05-22T12:09:25.961Z,2.50
2023-05-22T12:13:15.864Z,2.00
2023-05-22T12:17:06.439Z,2.30
2023-05-22T12:20:54.951Z,2.70
2023-05-22T12:24:48.819Z,2.10
2023-05-22T12:28:38.554Z,2.30
2023-05-22T12:32:27.207Z,2.80
2023-05-22T12:36:08.865Z,2.60
2023-05-22T12:39:51.910Z,2.50
2023-05-22T12:43:32.089Z,2.50
2023-05-22T12:47:14.572Z,2.20
2023-05-22T12:50:48.703Z,2.40
2023-05-22T12:54:37.305Z,2.10
2023-05-22T12:58:20.009Z,2.60
2023-05-22T13:02:08.604Z,2.30
2023-05-22T13:05:48.440Z,2.30
2023-05-22T13:09:24.499Z,2.30
2023-05-22T13:12:54.724Z,4.40
2023-05-22T13:16:41.147Z,2.60
2023-05-22T13:20:30.680Z,2.30
2023-05-22T13:24:11.654Z,2.20
2023-05-22T13:28:00.419Z,2.30
2023-05-22T13:31:43.314Z,2.40
2023-05-22T13:35:31.811Z,2.50
2023-05-22T13:39:20.470Z,2.20
2023-05-22T13:43:08.946Z,2.60
2023-05-22T13:46:51.715Z,2.30
2023-05-22T13:50:34.091Z,2.60
2023-05-22T13:54:22.539Z,2.60
2023-05-22T13:58:11.481Z,2.30
2023-05-22T14:02:00.015Z,2.30
2023-05-22T14:05:48.734Z,2.30
2023-05-22T14:09:37.249Z,2.60
2023-05-22T14:13:25.813Z,2.60
2023-05-22T14:17:14.382Z,2.70
2023-05-22T14:21:04.673Z,2.70
2023-05-22T14:24:53.624Z,2.40
2023-05-22T14:28:33.993Z,2.70
2023-05-22T14:32:28.523Z,2.80
2023-05-22T14:36:07.033Z,3.00
2023-05-22T14:39:55.622Z,2.70
2023-05-22T14:43:44.200Z,2.70
2023-05-22T14:47:32.759Z,2.80
2023-05-22T14:51:21.466Z,3.10
2023-05-22T14:54:58.242Z,12.00
2023-05-22T14:58:27.536Z,2.90
2023-05-22T15:01:01.264Z,2.90
2023-05-22T15:04:39.004Z,3.20
2023-05-22T15:08:27.486Z,3.00
2023-05-22T15:11:56.373Z,3.10
2023-05-22T15:15:24.995Z,2.90
2023-05-22T15:19:04.234Z,2.70
2023-05-22T15:22:15.889Z,2.70
2023-05-22T15:26:07.129Z,2.80
2023-05-22T15:29:58.354Z,2.90
2023-05-22T15:33:40.927Z,3.30
2023-05-22T15:37:32.056Z,2.70
2023-05-22T15:41:21.030Z,2.80
2023-05-22T15:45:03.630Z,2.80
2023-05-22T15:48:52.158Z,2.80
2023-05-22T15:52:40.649Z,2.50
2023-05-22T15:56:29.186Z,2.60
2023-05-22T16:00:18.646Z,2.30
2023-05-22T16:04:07.836Z,2.70
2023-05-22T16:07:39.204Z,2.90
2023-05-22T16:11:28.623Z,2.60
2023-05-22T16:15:13.601Z,2.60
2023-05-22T16:19:02.541Z,2.40
2023-05-22T16:22:40.230Z,2.60
2023-05-22T16:26:20.505Z,2.70
2023-05-22T16:30:09.025Z,2.70
2023-05-22T16:33:57.478Z,2.40
2023-05-22T16:37:46.211Z,2.60
2023-05-22T16:41:34.779Z,2.60
2023-05-22T16:45:23.310Z,2.30
2023-05-22T16:49:11.809Z,2.90
2023-05-22T16:53:00.246Z,2.70
2023-05-22T16:56:50.650Z,2.60
2023-05-22T17:00:39.221Z,3.90
2023-05-22T17:04:27.841Z,2.50
2023-05-22T17:08:16.355Z,2.60
2023-05-22T17:12:04.915Z,3.00
2023-05-22T17:15:16.152Z,2.90
2023-05-22T17:19:04.721Z,2.90
2023-05-22T17:22:52.404Z,3.00
2023-05-22T17:26:41.106Z,3.30
2023-05-22T17:30:29.757Z,3.40
2023-05-22T17:34:18.282Z,2.90
2023-05-22T17:38:06.846Z,2.80
2023-05-22T17:41:55.321Z,3.20
2023-05-22T17:45:44.126Z,3.00
2023-05-22T17:49:32.721Z,3.20
2023-05-22T17:53:06.839Z,3.30
2023-05-22T17:56:31.860Z,3.60
2023-05-22T18:00:22.766Z,5.00
2023-05-22T18:04:11.437Z,9.60
2023-05-22T18:08:00.518Z,12.40
2023-05-22T18:11:48.568Z,9.20
2023-05-22T18:15:37.141Z,5.70
2023-05-22T18:19:25.886Z,4.90
2023-05-22T18:23:14.730Z,8.30
2023-05-22T18:26:54.758Z,3.80
2023-05-22T18:30:43.277Z,3.90
2023-05-22T18:34:22.237Z,3.50
2023-05-22T18:38:04.072Z,3.20
2023-05-22T18:41:52.594Z,3.60
2023-05-22T18:45:39.763Z,3.60
2023-05-22T18:49:28.307Z,3.70
2023-05-22T18:53:16.872Z,3.20
2023-05-22T18:57:05.419Z,3.60
2023-05-22T19:00:54.262Z,3.90
2023-05-22T19:04:42.835Z,3.60
2023-05-22T19:08:24.206Z,4.10
2023-05-22T19:12:12.732Z,3.50
2023-05-22T19:16:01.316Z,4.10
2023-05-22T19:19:49.853Z,3.70
2023-05-22T19:23:38.517Z,3.90
2023-05-22T19:27:20.588Z,4.50
2023-05-22T19:31:03.353Z,4.00
2023-05-22T19:34:42.390Z,4.40
2023-05-22T19:38:30.727Z,4.10
2023-05-22T19:42:08.240Z,5.10
2023-05-22T19:45:50.249Z,4.30
2023-05-22T19:49:38.322Z,4.50
2023-05-22T19:53:26.882Z,4.40
2023-05-22T19:57:15.450Z,4.90
2023-05-22T20:00:42.365Z,5.00
2023-05-22T20:03:52.882Z,4.50
2023-05-22T20:07:19.765Z,4.80
2023-05-22T20:11:01.428Z,5.50
2023-05-22T20:14:12.878Z,5.70
2023-05-22T20:17:53.025Z,6.30
2023-05-22T20:21:40.891Z,6.00
2023-05-22T20:25:26.780Z,6.60
2023-05-22T20:29:11.623Z,6.40
2023-05-22T20:32:42.856Z,6.80
2023-05-22T20:36:23.845Z,7.10
2023-05-22T20:40:12.315Z,6.60
2023-05-22T20:43:25.827Z,7.00
2023-05-22T20:47:04.480Z,6.80
2023-05-22T20:50:53.405Z,7.70
2023-05-22T20:54:23.237Z,6.90
2023-05-22T20:57:55.636Z,7.20
2023-05-22T21:01:42.876Z,7.30
2023-05-22T21:05:04.179Z,6.80
2023-05-22T21:08:54.288Z,7.60
2023-05-22T21:12:23.106Z,7.30
2023-05-22T21:15:53.436Z,6.90
2023-05-22T21:19:27.259Z,7.20
2023-05-22T21:23:06.120Z,6.80
2023-05-22T21:26:37.655Z,6.80
2023-05-22T21:30:16.253Z,7.20
2023-05-22T21:34:03.444Z,6.20
2023-05-22T21:37:01.765Z,7.20
2023-05-22T21:40:50.405Z,7.10
2023-05-22T21:44:24.350Z,7.00
2023-05-22T21:51:23.882Z,6.40
2023-05-22T21:55:02.616Z,6.30
2023-05-22T21:58:42.861Z,6.50
2023-05-22T22:02:04.233Z,6.60
2023-05-22T22:05:52.878Z,7.00
2023-05-22T22:09:35.554Z,7.00
2023-05-22T22:13:23.357Z,6.70
2023-05-22T22:16:54.473Z,6.90
2023-05-22T22:20:44.515Z,6.30
2023-05-22T22:24:08.741Z,6.50
2023-05-22T22:27:42.543Z,6.70
2023-05-22T22:31:05.554Z,6.60
2023-05-22T22:34:54.277Z,6.60
2023-05-22T22:38:28.863Z,6.50
2023-05-22T22:42:17.361Z,5.80
2023-05-22T22:46:00.061Z,6.70
2023-05-22T22:49:46.414Z,7.00
2023-05-22T22:53:34.848Z,6.90
2023-05-22T22:56:55.467Z,6.00
2023-05-22T23:00:29.397Z,6.50
2023-05-22T23:04:10.682Z,6.40
2023-05-22T23:07:46.089Z,5.90
2023-05-22T23:11:14.609Z,6.60
2023-05-22T23:15:02.565Z,6.00
2023-05-22T23:18:43.711Z,5.80
2023-05-22T23:22:22.468Z,6.10
2023-05-22T23:26:11.018Z,5.90
2023-05-22T23:29:59.462Z,5.90
2023-05-22T23:33:40.603Z,5.50
2023-05-22T23:37:21.555Z,5.90
2023-05-22T23:41:03.504Z,5.90
2023-05-22T23:44:34.811Z,5.90
2023-05-22T23:48:26.121Z,5.60
2023-05-22T23:52:14.679Z,6.00
2023-05-22T23:55:56.782Z,5.70
2023-05-22T23:59:45.290Z,5.60
